sensor_id;sensor_type;location;lat;lon;timestamp;temperature;humidity
61591;DHT22;71994;52.410;-1.966;2024-03-25T00:00:15;16.60;51.70
61591;DHT22;71994;52.410;-1.966;2024-03-25T00:03:18;16.60;51.60
61591;DHT22;71994;52.410;-1.966;2024-03-25T00:06:22;16.60;51.70
61591;DHT22;71994;52.410;-1.966;2024-03-25T00:09:25;16.60;51.70
61591;DHT22;71994;52.410;-1.966;2024-03-25T00:12:29;16.60;51.60
61591;DHT22;71994;52.410;-1.966;2024-03-25T00:15:35;16.60;51.60
61591;DHT22;71994;52.410;-1.966;2024-03-25T00:18:39;16.50;51.50
61591;DHT22;71994;52.410;-1.966;2024-03-25T00:21:42;16.50;51.40
61591;DHT22;71994;52.410;-1.966;2024-03-25T00:24:46;16.50;51.40
61591;DHT22;71994;52.410;-1.966;2024-03-25T00:27:50;16.50;51.40
61591;DHT22;71994;52.410;-1.966;2024-03-25T00:30:56;16.40;51.40
61591;DHT22;71994;52.410;-1.966;2024-03-25T00:33:59;16.50;51.40
61591;DHT22;71994;52.410;-1.966;2024-03-25T00:37:03;16.40;51.40
61591;DHT22;71994;52.410;-1.966;2024-03-25T00:40:08;16.40;51.40
61591;DHT22;71994;52.410;-1.966;2024-03-25T00:43:11;16.40;51.40
61591;DHT22;71994;52.410;-1.966;2024-03-25T00:46:18;16.40;51.40
61591;DHT22;71994;52.410;-1.966;2024-03-25T00:49:21;16.40;51.40
61591;DHT22;71994;52.410;-1.966;2024-03-25T00:52:25;16.40;51.40
61591;DHT22;71994;52.410;-1.966;2024-03-25T00:55:32;16.40;51.30
61591;DHT22;71994;52.410;-1.966;2024-03-25T00:58:36;16.30;51.30
61591;DHT22;71994;52.410;-1.966;2024-03-25T01:01:42;16.30;51.30
61591;DHT22;71994;52.410;-1.966;2024-03-25T01:04:46;16.30;51.40
61591;DHT22;71994;52.410;-1.966;2024-03-25T01:07:49;16.30;51.40
61591;DHT22;71994;52.410;-1.966;2024-03-25T01:10:53;16.30;51.40
61591;DHT22;71994;52.410;-1.966;2024-03-25T01:13:56;16.30;51.50
61591;DHT22;71994;52.410;-1.966;2024-03-25T01:17:03;16.30;51.40
61591;DHT22;71994;52.410;-1.966;2024-03-25T01:20:07;16.30;51.40
61591;DHT22;71994;52.410;-1.966;2024-03-25T01:23:11;16.30;51.30
61591;DHT22;71994;52.410;-1.966;2024-03-25T01:26:15;16.20;51.40
61591;DHT22;71994;52.410;-1.966;2024-03-25T01:29:18;16.20;51.30
61591;DHT22;71994;52.410;-1.966;2024-03-25T01:32:25;16.20;51.40
61591;DHT22;71994;52.410;-1.966;2024-03-25T01:35:28;16.20;51.40
61591;DHT22;71994;52.410;-1.966;2024-03-25T01:38:32;16.10;51.40
61591;DHT22;71994;52.410;-1.966;2024-03-25T01:41:35;16.10;51.40
61591;DHT22;71994;52.410;-1.966;2024-03-25T01:44:39;16.10;51.40
61591;DHT22;71994;52.410;-1.966;2024-03-25T01:47:48;16.10;51.40
61591;DHT22;71994;52.410;-1.966;2024-03-25T01:50:52;16.20;51.30
61591;DHT22;71994;52.410;-1.966;2024-03-25T01:53:57;16.10;51.40
61591;DHT22;71994;52.410;-1.966;2024-03-25T01:57:02;16.10;51.40
61591;DHT22;71994;52.410;-1.966;2024-03-25T02:00:07;16.10;51.40
61591;DHT22;71994;52.410;-1.966;2024-03-25T02:03:14;16.10;51.40
61591;DHT22;71994;52.410;-1.966;2024-03-25T02:06:18;16.10;51.40
61591;DHT22;71994;52.410;-1.966;2024-03-25T02:09:23;16.10;51.30
61591;DHT22;71994;52.410;-1.966;2024-03-25T02:12:26;16.10;51.30
61591;DHT22;71994;52.410;-1.966;2024-03-25T02:15:33;16.10;51.30
61591;DHT22;71994;52.410;-1.966;2024-03-25T02:18:41;16.10;51.30
61591;DHT22;71994;52.410;-1.966;2024-03-25T02:21:44;16.10;51.20
61591;DHT22;71994;52.410;-1.966;2024-03-25T02:24:50;16.10;51.30
61591;DHT22;71994;52.410;-1.966;2024-03-25T02:27:58;16.10;51.30
61591;DHT22;71994;52.410;-1.966;2024-03-25T02:31:02;16.10;51.30
61591;DHT22;71994;52.410;-1.966;2024-03-25T02:34:06;16.10;51.40
61591;DHT22;71994;52.410;-1.966;2024-03-25T02:37:09;16.10;51.40
61591;DHT22;71994;52.410;-1.966;2024-03-25T02:40:13;16.00;51.40
61591;DHT22;71994;52.410;-1.966;2024-03-25T02:43:20;16.00;51.40
61591;DHT22;71994;52.410;-1.966;2024-03-25T02:46:24;16.00;51.40
61591;DHT22;71994;52.410;-1.966;2024-03-25T02:49:28;16.00;51.40
61591;DHT22;71994;52.410;-1.966;2024-03-25T02:52:31;16.00;51.50
61591;DHT22;71994;52.410;-1.966;2024-03-25T02:55:35;16.00;51.40
61591;DHT22;71994;52.410;-1.966;2024-03-25T02:58:41;15.90;51.50
61591;DHT22;71994;52.410;-1.966;2024-03-25T03:01:45;16.00;51.40
61591;DHT22;71994;52.410;-1.966;2024-03-25T03:04:48;15.90;51.40
61591;DHT22;71994;52.410;-1.966;2024-03-25T03:07:52;15.90;51.50
61591;DHT22;71994;52.410;-1.966;2024-03-25T03:10:55;15.90;51.40
61591;DHT22;71994;52.410;-1.966;2024-03-25T03:14:02;15.90;51.40
61591;DHT22;71994;52.410;-1.966;2024-03-25T03:17:08;16.00;51.40
61591;DHT22;71994;52.410;-1.966;2024-03-25T03:20:12;15.80;51.50
61591;DHT22;71994;52.410;-1.966;2024-03-25T03:23:15;15.90;51.40
61591;DHT22;71994;52.410;-1.966;2024-03-25T03:26:22;15.90;51.30
61591;DHT22;71994;52.410;-1.966;2024-03-25T03:29:29;15.80;51.50
61591;DHT22;71994;52.410;-1.966;2024-03-25T03:32:33;15.80;51.50
61591;DHT22;71994;52.410;-1.966;2024-03-25T03:35:39;15.80;51.50
61591;DHT22;71994;52.410;-1.966;2024-03-25T03:38:43;15.80;51.50
61591;DHT22;71994;52.410;-1.966;2024-03-25T03:41:46;15.80;51.50
61591;DHT22;71994;52.410;-1.966;2024-03-25T03:44:53;15.80;51.40
61591;DHT22;71994;52.410;-1.966;2024-03-25T03:47:58;15.80;51.40
61591;DHT22;71994;52.410;-1.966;2024-03-25T03:51:02;15.80;51.40
61591;DHT22;71994;52.410;-1.966;2024-03-25T03:54:07;15.80;51.40
61591;DHT22;71994;52.410;-1.966;2024-03-25T03:57:11;15.80;51.60
61591;DHT22;71994;52.410;-1.966;2024-03-25T04:00:18;16.00;51.50
61591;DHT22;71994;52.410;-1.966;2024-03-25T04:03:21;16.00;51.40
61591;DHT22;71994;52.410;-1.966;2024-03-25T04:06:25;16.10;51.30
61591;DHT22;71994;52.410;-1.966;2024-03-25T04:09:29;16.10;51.20
61591;DHT22;71994;52.410;-1.966;2024-03-25T04:12:32;16.20;51.20
61591;DHT22;71994;52.410;-1.966;2024-03-25T04:15:39;16.20;51.20
61591;DHT22;71994;52.410;-1.966;2024-03-25T04:18:43;16.30;51.10
61591;DHT22;71994;52.410;-1.966;2024-03-25T04:21:47;16.30;51.00
61591;DHT22;71994;52.410;-1.966;2024-03-25T04:24:50;16.30;51.00
61591;DHT22;71994;52.410;-1.966;2024-03-25T04:27:54;16.30;50.90
61591;DHT22;71994;52.410;-1.966;2024-03-25T04:31:00;16.30;51.00
61591;DHT22;71994;52.410;-1.966;2024-03-25T04:34:04;16.30;51.00
61591;DHT22;71994;52.410;-1.966;2024-03-25T04:37:09;16.30;50.90
61591;DHT22;71994;52.410;-1.966;2024-03-25T04:40:12;16.30;50.90
61591;DHT22;71994;52.410;-1.966;2024-03-25T04:43:17;16.30;50.90
61591;DHT22;71994;52.410;-1.966;2024-03-25T04:46:23;16.30;50.90
61591;DHT22;71994;52.410;-1.966;2024-03-25T04:49:27;16.30;50.90
61591;DHT22;71994;52.410;-1.966;2024-03-25T04:52:30;16.30;50.90
61591;DHT22;71994;52.410;-1.966;2024-03-25T04:55:34;16.20;50.90
61591;DHT22;71994;52.410;-1.966;2024-03-25T04:58:39;16.20;50.90
61591;DHT22;71994;52.410;-1.966;2024-03-25T05:01:45;16.20;50.90
61591;DHT22;71994;52.410;-1.966;2024-03-25T05:04:48;16.20;50.90
61591;DHT22;71994;52.410;-1.966;2024-03-25T05:07:52;16.20;51.00
61591;DHT22;71994;52.410;-1.966;2024-03-25T05:10:55;16.20;50.90
61591;DHT22;71994;52.410;-1.966;2024-03-25T05:13:59;16.10;50.90
61591;DHT22;71994;52.410;-1.966;2024-03-25T05:17:05;16.20;51.00
61591;DHT22;71994;52.410;-1.966;2024-03-25T05:20:10;16.10;51.00
61591;DHT22;71994;52.410;-1.966;2024-03-25T05:23:14;16.10;51.00
61591;DHT22;71994;52.410;-1.966;2024-03-25T05:26:18;16.10;51.00
61591;DHT22;71994;52.410;-1.966;2024-03-25T05:29:24;16.10;51.00
61591;DHT22;71994;52.410;-1.966;2024-03-25T05:32:31;16.10;51.10
61591;DHT22;71994;52.410;-1.966;2024-03-25T05:35:34;16.10;51.00
61591;DHT22;71994;52.410;-1.966;2024-03-25T05:38:38;16.10;51.10
61591;DHT22;71994;52.410;-1.966;2024-03-25T05:41:45;16.10;51.10
61591;DHT22;71994;52.410;-1.966;2024-03-25T05:44:48;16.10;51.10
61591;DHT22;71994;52.410;-1.966;2024-03-25T05:47:55;16.00;51.10
61591;DHT22;71994;52.410;-1.966;2024-03-25T05:50:59;16.00;51.10
61591;DHT22;71994;52.410;-1.966;2024-03-25T05:54:05;16.00;51.20
61591;DHT22;71994;52.410;-1.966;2024-03-25T05:57:09;16.00;51.10
61591;DHT22;71994;52.410;-1.966;2024-03-25T06:00:13;16.00;51.20
61591;DHT22;71994;52.410;-1.966;2024-03-25T06:03:20;16.00;51.10
61591;DHT22;71994;52.410;-1.966;2024-03-25T06:06:23;15.90;51.10
61591;DHT22;71994;52.410;-1.966;2024-03-25T06:09:27;15.90;51.10
61591;DHT22;71994;52.410;-1.966;2024-03-25T06:12:31;15.90;51.20
61591;DHT22;71994;52.410;-1.966;2024-03-25T06:15:34;15.80;51.20
61591;DHT22;71994;52.410;-1.966;2024-03-25T06:18:41;15.90;51.20
61591;DHT22;71994;52.410;-1.966;2024-03-25T06:21:44;15.80;51.30
61591;DHT22;71994;52.410;-1.966;2024-03-25T06:24:48;15.80;51.30
61591;DHT22;71994;52.410;-1.966;2024-03-25T06:27:52;15.90;51.50
61591;DHT22;71994;52.410;-1.966;2024-03-25T06:30:55;16.00;51.40
61591;DHT22;71994;52.410;-1.966;2024-03-25T06:34:20;16.10;51.30
61591;DHT22;71994;52.410;-1.966;2024-03-25T06:37:24;16.10;51.30
61591;DHT22;71994;52.410;-1.966;2024-03-25T06:40:27;16.20;51.20
61591;DHT22;71994;52.410;-1.966;2024-03-25T06:43:31;16.30;51.20
61591;DHT22;71994;52.410;-1.966;2024-03-25T06:46:34;16.30;51.20
61591;DHT22;71994;52.410;-1.966;2024-03-25T06:49:41;16.30;51.00
61591;DHT22;71994;52.410;-1.966;2024-03-25T06:52:44;16.30;51.10
61591;DHT22;71994;52.410;-1.966;2024-03-25T06:55:52;16.30;51.00
61591;DHT22;71994;52.410;-1.966;2024-03-25T06:58:56;16.30;51.00
61591;DHT22;71994;52.410;-1.966;2024-03-25T07:01:59;16.30;51.00
61591;DHT22;71994;52.410;-1.966;2024-03-25T07:05:06;16.30;50.90
61591;DHT22;71994;52.410;-1.966;2024-03-25T07:08:10;16.30;50.90
61591;DHT22;71994;52.410;-1.966;2024-03-25T07:11:14;16.30;50.90
61591;DHT22;71994;52.410;-1.966;2024-03-25T07:14:17;16.30;50.90
61591;DHT22;71994;52.410;-1.966;2024-03-25T07:17:21;16.20;50.90
61591;DHT22;71994;52.410;-1.966;2024-03-25T07:20:27;16.20;50.90
61591;DHT22;71994;52.410;-1.966;2024-03-25T07:23:32;16.20;50.90
61591;DHT22;71994;52.410;-1.966;2024-03-25T07:26:36;16.20;51.10
61591;DHT22;71994;52.410;-1.966;2024-03-25T07:29:40;16.20;51.00
61591;DHT22;71994;52.410;-1.966;2024-03-25T07:32:43;16.20;50.90
61591;DHT22;71994;52.410;-1.966;2024-03-25T07:35:50;16.20;50.90
61591;DHT22;71994;52.410;-1.966;2024-03-25T07:38:53;16.20;50.90
61591;DHT22;71994;52.410;-1.966;2024-03-25T07:41:57;16.20;51.80
61591;DHT22;71994;52.410;-1.966;2024-03-25T07:45:00;16.30;51.60
61591;DHT22;71994;52.410;-1.966;2024-03-25T07:48:05;16.40;51.90
61591;DHT22;71994;52.410;-1.966;2024-03-25T07:51:11;16.50;51.50
61591;DHT22;71994;52.410;-1.966;2024-03-25T07:54:15;16.60;51.50
61591;DHT22;71994;52.410;-1.966;2024-03-25T07:57:19;16.70;51.50
61591;DHT22;71994;52.410;-1.966;2024-03-25T08:00:22;16.80;51.60
61591;DHT22;71994;52.410;-1.966;2024-03-25T08:03:26;17.00;51.60
61591;DHT22;71994;52.410;-1.966;2024-03-25T08:06:32;17.10;51.60
61591;DHT22;71994;52.410;-1.966;2024-03-25T08:09:36;17.20;51.50
61591;DHT22;71994;52.410;-1.966;2024-03-25T08:12:39;17.40;51.30
61591;DHT22;71994;52.410;-1.966;2024-03-25T08:15:43;17.50;51.10
61591;DHT22;71994;52.410;-1.966;2024-03-25T08:18:47;17.60;50.90
61591;DHT22;71994;52.410;-1.966;2024-03-25T08:21:55;17.70;50.70
61591;DHT22;71994;52.410;-1.966;2024-03-25T08:24:58;17.80;50.50
61591;DHT22;71994;52.410;-1.966;2024-03-25T08:28:02;17.80;50.30
61591;DHT22;71994;52.410;-1.966;2024-03-25T08:31:06;17.90;50.20
61591;DHT22;71994;52.410;-1.966;2024-03-25T08:34:10;17.80;50.20
61591;DHT22;71994;52.410;-1.966;2024-03-25T08:37:18;17.90;50.20
61591;DHT22;71994;52.410;-1.966;2024-03-25T08:40:22;17.80;50.10
61591;DHT22;71994;52.410;-1.966;2024-03-25T08:43:26;17.90;50.20
61591;DHT22;71994;52.410;-1.966;2024-03-25T08:46:29;17.80;50.10
61591;DHT22;71994;52.410;-1.966;2024-03-25T08:49:33;17.80;50.00
61591;DHT22;71994;52.410;-1.966;2024-03-25T08:52:39;17.80;50.10
61591;DHT22;71994;52.410;-1.966;2024-03-25T08:55:45;17.80;50.10
61591;DHT22;71994;52.410;-1.966;2024-03-25T08:58:48;17.70;50.10
61591;DHT22;71994;52.410;-1.966;2024-03-25T09:01:52;17.70;50.30
61591;DHT22;71994;52.410;-1.966;2024-03-25T09:04:55;17.60;50.20
61591;DHT22;71994;52.410;-1.966;2024-03-25T09:08:02;17.60;50.20
61591;DHT22;71994;52.410;-1.966;2024-03-25T09:11:05;17.60;50.20
61591;DHT22;71994;52.410;-1.966;2024-03-25T09:14:09;17.50;50.20
61591;DHT22;71994;52.410;-1.966;2024-03-25T09:17:13;17.50;50.20
61591;DHT22;71994;52.410;-1.966;2024-03-25T09:20:16;17.40;50.30
61591;DHT22;71994;52.410;-1.966;2024-03-25T09:23:23;17.40;50.30
61591;DHT22;71994;52.410;-1.966;2024-03-25T09:26:26;17.30;50.30
61591;DHT22;71994;52.410;-1.966;2024-03-25T09:29:30;17.30;50.40
61591;DHT22;71994;52.410;-1.966;2024-03-25T09:32:34;17.30;50.40
61591;DHT22;71994;52.410;-1.966;2024-03-25T09:35:44;17.20;50.40
61591;DHT22;71994;52.410;-1.966;2024-03-25T09:38:50;17.20;50.50
61591;DHT22;71994;52.410;-1.966;2024-03-25T09:41:55;17.10;50.60
61591;DHT22;71994;52.410;-1.966;2024-03-25T09:45:01;17.00;50.70
61591;DHT22;71994;52.410;-1.966;2024-03-25T09:48:08;17.00;50.80
61591;DHT22;71994;52.410;-1.966;2024-03-25T09:51:12;17.00;50.80
61591;DHT22;71994;52.410;-1.966;2024-03-25T09:54:18;16.90;50.90
61591;DHT22;71994;52.410;-1.966;2024-03-25T09:57:22;16.90;51.00
61591;DHT22;71994;52.410;-1.966;2024-03-25T10:00:29;16.80;51.10
61591;DHT22;71994;52.410;-1.966;2024-03-25T10:03:33;16.80;51.20
61591;DHT22;71994;52.410;-1.966;2024-03-25T10:06:38;16.80;51.10
61591;DHT22;71994;52.410;-1.966;2024-03-25T10:09:46;16.80;51.20
61591;DHT22;71994;52.410;-1.966;2024-03-25T10:12:49;16.80;51.30
61591;DHT22;71994;52.410;-1.966;2024-03-25T10:15:54;16.70;51.30
61591;DHT22;71994;52.410;-1.966;2024-03-25T10:18:58;16.70;51.30
61591;DHT22;71994;52.410;-1.966;2024-03-25T10:22:03;16.70;51.30
61591;DHT22;71994;52.410;-1.966;2024-03-25T10:25:19;16.70;51.30
61591;DHT22;71994;52.410;-1.966;2024-03-25T10:28:29;16.70;51.30
61591;DHT22;71994;52.410;-1.966;2024-03-25T10:31:36;16.70;51.40
61591;DHT22;71994;52.410;-1.966;2024-03-25T10:34:40;16.70;51.50
61591;DHT22;71994;52.410;-1.966;2024-03-25T10:37:46;16.80;51.40
61591;DHT22;71994;52.410;-1.966;2024-03-25T10:40:56;16.90;51.40
61591;DHT22;71994;52.410;-1.966;2024-03-25T10:44:06;17.00;51.30
61591;DHT22;71994;52.410;-1.966;2024-03-25T10:47:17;17.10;51.20
61591;DHT22;71994;52.410;-1.966;2024-03-25T10:50:26;17.30;51.00
61591;DHT22;71994;52.410;-1.966;2024-03-25T10:53:30;17.40;50.90
61591;DHT22;71994;52.410;-1.966;2024-03-25T10:56:41;17.50;50.70
61591;DHT22;71994;52.410;-1.966;2024-03-25T10:59:45;17.60;50.50
61591;DHT22;71994;52.410;-1.966;2024-03-25T11:02:49;17.60;50.40
61591;DHT22;71994;52.410;-1.966;2024-03-25T11:05:54;17.60;50.40
61591;DHT22;71994;52.410;-1.966;2024-03-25T11:08:59;17.70;50.50
61591;DHT22;71994;52.410;-1.966;2024-03-25T11:12:09;17.70;50.40
61591;DHT22;71994;52.410;-1.966;2024-03-25T11:15:13;17.70;50.50
61591;DHT22;71994;52.410;-1.966;2024-03-25T11:18:17;17.60;50.50
61591;DHT22;71994;52.410;-1.966;2024-03-25T11:21:25;17.60;50.40
61591;DHT22;71994;52.410;-1.966;2024-03-25T11:24:29;17.60;50.50
61591;DHT22;71994;52.410;-1.966;2024-03-25T11:27:39;17.60;50.40
61591;DHT22;71994;52.410;-1.966;2024-03-25T11:30:44;17.60;50.40
61591;DHT22;71994;52.410;-1.966;2024-03-25T11:33:47;17.60;50.40
61591;DHT22;71994;52.410;-1.966;2024-03-25T11:36:51;17.60;50.40
61591;DHT22;71994;52.410;-1.966;2024-03-25T11:40:02;17.60;50.40
61591;DHT22;71994;52.410;-1.966;2024-03-25T11:43:10;17.60;50.50
61591;DHT22;71994;52.410;-1.966;2024-03-25T11:46:17;17.50;50.50
61591;DHT22;71994;52.410;-1.966;2024-03-25T11:49:22;17.50;50.60
61591;DHT22;71994;52.410;-1.966;2024-03-25T11:52:30;17.50;50.70
61591;DHT22;71994;52.410;-1.966;2024-03-25T11:55:34;17.50;50.80
61591;DHT22;71994;52.410;-1.966;2024-03-25T11:58:40;17.40;50.80
61591;DHT22;71994;52.410;-1.966;2024-03-25T12:01:46;17.30;50.90
61591;DHT22;71994;52.410;-1.966;2024-03-25T12:04:50;17.30;51.00
61591;DHT22;71994;52.410;-1.966;2024-03-25T12:07:54;17.30;51.00
61591;DHT22;71994;52.410;-1.966;2024-03-25T12:11:00;17.30;51.10
61591;DHT22;71994;52.410;-1.966;2024-03-25T12:14:27;17.30;51.00
61591;DHT22;71994;52.410;-1.966;2024-03-25T12:17:33;17.30;51.00
61591;DHT22;71994;52.410;-1.966;2024-03-25T12:20:37;17.30;51.10
61591;DHT22;71994;52.410;-1.966;2024-03-25T12:23:49;17.40;51.10
61591;DHT22;71994;52.410;-1.966;2024-03-25T12:26:55;17.60;51.10
61591;DHT22;71994;52.410;-1.966;2024-03-25T12:30:05;17.60;50.90
61591;DHT22;71994;52.410;-1.966;2024-03-25T12:33:16;17.80;50.80
61591;DHT22;71994;52.410;-1.966;2024-03-25T12:36:20;17.90;50.60
61591;DHT22;71994;52.410;-1.966;2024-03-25T12:39:24;18.00;50.40
61591;DHT22;71994;52.410;-1.966;2024-03-25T12:42:31;18.10;50.20
61591;DHT22;71994;52.410;-1.966;2024-03-25T12:45:38;18.20;50.10
61591;DHT22;71994;52.410;-1.966;2024-03-25T12:48:44;18.20;49.90
61591;DHT22;71994;52.410;-1.966;2024-03-25T12:51:50;18.20;49.90
61591;DHT22;71994;52.410;-1.966;2024-03-25T12:54:53;18.20;49.90
61591;DHT22;71994;52.410;-1.966;2024-03-25T12:57:57;18.20;49.90
61591;DHT22;71994;52.410;-1.966;2024-03-25T13:01:08;18.20;49.90
61591;DHT22;71994;52.410;-1.966;2024-03-25T13:04:13;18.20;50.00
61591;DHT22;71994;52.410;-1.966;2024-03-25T13:07:17;18.20;50.00
61591;DHT22;71994;52.410;-1.966;2024-03-25T13:10:21;18.10;50.00
61591;DHT22;71994;52.410;-1.966;2024-03-25T13:13:24;18.10;50.10
61591;DHT22;71994;52.410;-1.966;2024-03-25T13:16:31;18.10;50.20
61591;DHT22;71994;52.410;-1.966;2024-03-25T13:19:37;18.10;50.20
61591;DHT22;71994;52.410;-1.966;2024-03-25T13:22:40;18.10;50.20
61591;DHT22;71994;52.410;-1.966;2024-03-25T13:25:45;18.00;50.20
61591;DHT22;71994;52.410;-1.966;2024-03-25T13:28:48;18.00;50.20
61591;DHT22;71994;52.410;-1.966;2024-03-25T13:31:56;18.00;50.30
61591;DHT22;71994;52.410;-1.966;2024-03-25T13:35:01;18.00;50.20
61591;DHT22;71994;52.410;-1.966;2024-03-25T13:38:05;17.90;50.30
61591;DHT22;71994;52.410;-1.966;2024-03-25T13:41:09;17.90;50.40
61591;DHT22;71994;52.410;-1.966;2024-03-25T13:44:21;17.90;50.40
61591;DHT22;71994;52.410;-1.966;2024-03-25T13:47:29;17.80;50.50
61591;DHT22;71994;52.410;-1.966;2024-03-25T13:50:33;17.80;50.50
61591;DHT22;71994;52.410;-1.966;2024-03-25T13:53:37;17.80;50.50
61591;DHT22;71994;52.410;-1.966;2024-03-25T13:56:47;17.70;50.60
61591;DHT22;71994;52.410;-1.966;2024-03-25T13:59:50;17.70;50.60
61591;DHT22;71994;52.410;-1.966;2024-03-25T14:02:57;17.70;50.60
61591;DHT22;71994;52.410;-1.966;2024-03-25T14:06:01;17.60;50.60
61591;DHT22;71994;52.410;-1.966;2024-03-25T14:09:04;17.60;50.70
61591;DHT22;71994;52.410;-1.966;2024-03-25T14:12:10;17.60;50.70
61591;DHT22;71994;52.410;-1.966;2024-03-25T14:15:13;17.50;50.80
61591;DHT22;71994;52.410;-1.966;2024-03-25T14:18:20;17.50;50.80
61591;DHT22;71994;52.410;-1.966;2024-03-25T14:21:23;17.50;50.90
61591;DHT22;71994;52.410;-1.966;2024-03-25T14:24:29;17.50;50.90
61591;DHT22;71994;52.410;-1.966;2024-03-25T14:27:32;17.30;50.90
61591;DHT22;71994;52.410;-1.966;2024-03-25T14:30:36;17.30;50.90
61591;DHT22;71994;52.410;-1.966;2024-03-25T14:33:43;17.30;51.00
61591;DHT22;71994;52.410;-1.966;2024-03-25T14:36:46;17.30;51.00
61591;DHT22;71994;52.410;-1.966;2024-03-25T14:39:50;17.30;51.00
61591;DHT22;71994;52.410;-1.966;2024-03-25T14:42:54;17.20;51.10
61591;DHT22;71994;52.410;-1.966;2024-03-25T14:45:59;17.20;51.10
61591;DHT22;71994;52.410;-1.966;2024-03-25T14:49:06;17.10;51.20
61591;DHT22;71994;52.410;-1.966;2024-03-25T14:52:10;17.20;51.30
61591;DHT22;71994;52.410;-1.966;2024-03-25T14:55:14;17.10;51.30
61591;DHT22;71994;52.410;-1.966;2024-03-25T14:58:21;17.10;51.40
61591;DHT22;71994;52.410;-1.966;2024-03-25T15:01:25;17.10;51.40
61591;DHT22;71994;52.410;-1.966;2024-03-25T15:04:32;17.10;51.40
61591;DHT22;71994;52.410;-1.966;2024-03-25T15:07:35;17.10;51.40
61591;DHT22;71994;52.410;-1.966;2024-03-25T15:10:39;17.10;51.50
61591;DHT22;71994;52.410;-1.966;2024-03-25T15:13:42;17.10;51.50
61591;DHT22;71994;52.410;-1.966;2024-03-25T15:16:46;17.10;51.40
61591;DHT22;71994;52.410;-1.966;2024-03-25T15:19:54;17.00;51.50
61591;DHT22;71994;52.410;-1.966;2024-03-25T15:23:03;17.00;51.40
61591;DHT22;71994;52.410;-1.966;2024-03-25T15:26:06;17.00;51.40
61591;DHT22;71994;52.410;-1.966;2024-03-25T15:29:13;17.00;51.40
61591;DHT22;71994;52.410;-1.966;2024-03-25T15:32:16;17.00;51.30
61591;DHT22;71994;52.410;-1.966;2024-03-25T15:35:23;17.00;51.40
61591;DHT22;71994;52.410;-1.966;2024-03-25T15:38:32;16.90;51.40
61591;DHT22;71994;52.410;-1.966;2024-03-25T15:41:35;16.90;51.40
61591;DHT22;71994;52.410;-1.966;2024-03-25T15:44:39;16.90;51.40
61591;DHT22;71994;52.410;-1.966;2024-03-25T15:47:43;16.90;51.50
61591;DHT22;71994;52.410;-1.966;2024-03-25T15:50:49;16.90;51.40
61591;DHT22;71994;52.410;-1.966;2024-03-25T15:53:55;16.80;51.50
61591;DHT22;71994;52.410;-1.966;2024-03-25T15:57:01;16.80;51.50
61591;DHT22;71994;52.410;-1.966;2024-03-25T16:00:06;16.80;51.50
61591;DHT22;71994;52.410;-1.966;2024-03-25T16:03:10;16.80;51.50
61591;DHT22;71994;52.410;-1.966;2024-03-25T16:06:16;16.80;51.60
61591;DHT22;71994;52.410;-1.966;2024-03-25T16:09:23;16.80;51.60
61591;DHT22;71994;52.410;-1.966;2024-03-25T16:12:29;16.70;51.60
61591;DHT22;71994;52.410;-1.966;2024-03-25T16:15:37;16.80;51.70
61591;DHT22;71994;52.410;-1.966;2024-03-25T16:18:41;16.80;51.70
61591;DHT22;71994;52.410;-1.966;2024-03-25T16:21:49;16.80;51.70
61591;DHT22;71994;52.410;-1.966;2024-03-25T16:24:56;16.70;51.80
61591;DHT22;71994;52.410;-1.966;2024-03-25T16:28:00;16.70;51.80
61591;DHT22;71994;52.410;-1.966;2024-03-25T16:31:03;16.70;51.80
61591;DHT22;71994;52.410;-1.966;2024-03-25T16:34:09;16.70;51.70
61591;DHT22;71994;52.410;-1.966;2024-03-25T16:37:15;16.80;52.10
61591;DHT22;71994;52.410;-1.966;2024-03-25T16:40:19;16.80;51.90
61591;DHT22;71994;52.410;-1.966;2024-03-25T16:43:22;16.90;51.90
61591;DHT22;71994;52.410;-1.966;2024-03-25T16:46:26;17.00;51.90
61591;DHT22;71994;52.410;-1.966;2024-03-25T16:49:29;17.10;51.80
61591;DHT22;71994;52.410;-1.966;2024-03-25T16:52:36;17.20;51.50
61591;DHT22;71994;52.410;-1.966;2024-03-25T16:55:40;17.40;51.30
61591;DHT22;71994;52.410;-1.966;2024-03-25T16:58:43;17.60;51.10
61591;DHT22;71994;52.410;-1.966;2024-03-25T17:01:47;17.60;50.80
61591;DHT22;71994;52.410;-1.966;2024-03-25T17:04:50;17.70;50.60
61591;DHT22;71994;52.410;-1.966;2024-03-25T17:08:00;17.80;50.50
61591;DHT22;71994;52.410;-1.966;2024-03-25T17:11:03;17.80;50.40
61591;DHT22;71994;52.410;-1.966;2024-03-25T17:14:10;17.80;50.40
61591;DHT22;71994;52.410;-1.966;2024-03-25T17:17:17;17.80;50.40
61591;DHT22;71994;52.410;-1.966;2024-03-25T17:20:34;17.80;50.30
61591;DHT22;71994;52.410;-1.966;2024-03-25T17:24:00;17.80;50.30
61591;DHT22;71994;52.410;-1.966;2024-03-25T17:27:23;17.80;50.30
61591;DHT22;71994;52.410;-1.966;2024-03-25T17:30:43;17.80;50.40
61591;DHT22;71994;52.410;-1.966;2024-03-25T17:33:49;17.80;50.50
61591;DHT22;71994;52.410;-1.966;2024-03-25T17:36:57;17.70;50.30
61591;DHT22;71994;52.410;-1.966;2024-03-25T17:40:42;17.70;50.30
61591;DHT22;71994;52.410;-1.966;2024-03-25T17:44:15;17.70;50.30
61591;DHT22;71994;52.410;-1.966;2024-03-25T17:47:49;17.60;50.40
61591;DHT22;71994;52.410;-1.966;2024-03-25T17:51:08;17.60;50.30
61591;DHT22;71994;52.410;-1.966;2024-03-25T17:54:18;17.60;50.30
61591;DHT22;71994;52.410;-1.966;2024-03-25T17:57:27;17.60;50.70
61591;DHT22;71994;52.410;-1.966;2024-03-25T18:00:32;17.60;50.70
61591;DHT22;71994;52.410;-1.966;2024-03-25T18:03:36;17.60;50.30
61591;DHT22;71994;52.410;-1.966;2024-03-25T18:06:39;17.60;50.20
61591;DHT22;71994;52.410;-1.966;2024-03-25T18:09:45;17.50;50.60
61591;DHT22;71994;52.410;-1.966;2024-03-25T18:12:56;17.40;50.80
61591;DHT22;71994;52.410;-1.966;2024-03-25T18:16:07;17.40;51.00
61591;DHT22;71994;52.410;-1.966;2024-03-25T18:19:15;17.40;50.90
61591;DHT22;71994;52.410;-1.966;2024-03-25T18:22:21;17.40;51.10
61591;DHT22;71994;52.410;-1.966;2024-03-25T18:25:34;17.40;51.20
61591;DHT22;71994;52.410;-1.966;2024-03-25T18:28:40;17.40;51.00
61591;DHT22;71994;52.410;-1.966;2024-03-25T18:31:44;17.40;50.90
61591;DHT22;71994;52.410;-1.966;2024-03-25T18:34:48;17.40;50.90
61591;DHT22;71994;52.410;-1.966;2024-03-25T18:37:51;17.40;50.90
61591;DHT22;71994;52.410;-1.966;2024-03-25T18:40:55;17.40;51.00
61591;DHT22;71994;52.410;-1.966;2024-03-25T18:48:08;17.60;50.90
61591;DHT22;71994;52.410;-1.966;2024-03-25T18:51:12;17.70;50.70
61591;DHT22;71994;52.410;-1.966;2024-03-25T18:54:18;17.80;50.50
61591;DHT22;71994;52.410;-1.966;2024-03-25T18:57:22;17.80;50.40
61591;DHT22;71994;52.410;-1.966;2024-03-25T19:00:28;17.90;50.10
61591;DHT22;71994;52.410;-1.966;2024-03-25T19:03:35;17.90;50.10
61591;DHT22;71994;52.410;-1.966;2024-03-25T19:06:38;17.80;50.00
61591;DHT22;71994;52.410;-1.966;2024-03-25T19:09:42;17.80;49.80
61591;DHT22;71994;52.410;-1.966;2024-03-25T19:12:46;17.80;49.80
61591;DHT22;71994;52.410;-1.966;2024-03-25T19:15:51;17.80;49.60